Time;durP1;ratioP1;P1;durP2;ratioP2;P2;SDS_P1;SDS_P2;PMS_P1;PMS_P2;Temp;Humidity;BMP_temperature;BMP_pressure;BME280_temperature;BME280_humidity;BME280_pressure;Samples;Min_cycle;Max_cycle;Signal;HPM_P1;HPM_P2
2022/09/19 00:00:42;;;;;;;;;;;;;;;14.94;69.64;101454.63;1028416;28;627;-88
2022/09/19 00:01:33;;;;;;;;;;;;;;;14.91;69.23;101453.97;1028355;28;654;-87
2022/09/19 00:02:23;;;;;;;;;;;;;;;14.92;69.83;101461.91;1028405;28;655;-87
2022/09/19 00:03:14;;;;;;;;;;;;;;;15.00;69.74;101457.81;1028382;28;686;-88
2022/09/19 00:04:04;;;;;;;;;;;;;;;15.03;69.63;101461.16;1028468;28;641;-88
2022/09/19 00:04:55;;;;;;;;;;;;;;;15.09;69.59;101451.75;1028589;28;620;-89
2022/09/19 00:05:45;;;;;;;;;;;;;;;14.99;69.13;101450.75;1028322;28;985;-87
2022/09/19 00:06:35;;;;;;;;;;;;;;;14.96;69.96;101451.81;1028981;28;626;-84
2022/09/19 00:07:26;;;;;;;;;;;;;;;15.00;69.02;101453.31;1030186;28;1668;-81
2022/09/19 00:08:17;;;;;;;;;;;;;;;15.03;69.53;101458.47;1031931;28;674;-81
2022/09/19 00:09:07;;;;;;;;;;;;;;;15.06;69.42;101452.84;1031761;28;1613;-80
2022/09/19 00:09:58;;;;;;;;;;;;;;;15.13;69.93;101450.56;1028962;28;784;-80
2022/09/19 00:10:50;;;;;;;;;;;;;;;15.06;70.08;101458.22;1028291;28;791;-80
2022/09/19 00:11:40;;;;;;;;;;;;;;;15.02;70.02;101451.38;1027973;28;702;-79
2022/09/19 00:12:31;;;;;;;;;;;;;;;15.05;70.31;101452.97;1023957;29;694;-81
2022/09/19 00:13:21;;;;;;;;;;;;;;;15.06;69.94;101452.84;1024615;28;714;-80
2022/09/19 00:14:13;;;;;;;;;;;;;;;15.04;69.52;101456.63;1028186;28;709;-80
2022/09/19 00:15:04;;;;;;;;;;;;;;;15.00;69.91;101460.50;1027649;28;720;-80
2022/09/19 00:15:54;;;;;;;;;;;;;;;15.05;70.01;101461.84;1028821;28;706;-80
2022/09/19 00:16:45;;;;;;;;;;;;;;;15.03;69.58;101457.59;1028824;28;693;-80
2022/09/19 00:17:35;;;;;;;;;;;;;;;14.99;69.84;101456.97;1023979;29;634;-80
2022/09/19 00:18:26;;;;;;;;;;;;;;;15.02;70.24;101450.53;1024589;28;609;-80
2022/09/19 00:19:16;;;;;;;;;;;;;;;15.07;70.04;101459.06;1027919;28;640;-81
2022/09/19 00:20:07;;;;;;;;;;;;;;;15.05;69.88;101456.50;1028902;28;714;-79
2022/09/19 00:20:59;;;;;;;;;;;;;;;15.04;70.01;101454.81;1028794;28;1969;-79
2022/09/19 00:21:50;;;;;;;;;;;;;;;15.05;68.93;101458.34;1028296;28;682;-80
2022/09/19 00:24:45;;;;;;;;;;;;;;;15.01;69.68;101455.03;1028872;28;765;-80
2022/09/19 00:25:00;;;;;;;;;;;;;;;15.07;69.90;101459.06;1028196;28;1140;-80
2022/09/19 00:25:50;;;;;;;;;;;;;;;15.07;70.15;101459.06;1024114;29;761;-81
2022/09/19 00:26:41;;;;;;;;;;;;;;;15.11;69.62;101455.19;1024599;28;656;-81
2022/09/19 00:27:31;;;;;;;;;;;;;;;15.11;69.99;101460.56;1027649;28;749;-80
2022/09/19 00:28:25;;;;;;;;;;;;;;;15.14;69.46;101455.81;1028620;28;670;-80
2022/09/19 00:29:16;;;;;;;;;;;;;;;15.13;70.02;101455.94;1027276;28;1126;-83
2022/09/19 00:30:09;;;;;;;;;;;;;;;15.14;69.46;101460.34;1029353;28;775;-87
2022/09/19 00:31:00;;;;;;;;;;;;;;;15.09;69.90;101449.94;1026936;28;745;-85
2022/09/19 00:31:51;;;;;;;;;;;;;;;15.10;69.54;101453.47;1028977;28;772;-85
2022/09/19 00:32:41;;;;;;;;;;;;;;;15.09;70.02;101449.94;1028782;28;829;-85
2022/09/19 00:33:32;;;;;;;;;;;;;;;15.03;68.35;101457.59;1028406;28;721;-85
2022/09/19 00:34:22;;;;;;;;;;;;;;;15.06;69.84;101457.34;1028421;28;648;-83
2022/09/19 00:35:13;;;;;;;;;;;;;;;15.11;69.84;101455.19;1028270;28;658;-83
2022/09/19 00:36:04;;;;;;;;;;;;;;;15.11;69.89;101458.72;1028431;28;657;-83
2022/09/19 00:36:54;;;;;;;;;;;;;;;15.06;69.06;101457.34;1027959;28;639;-83
2022/09/19 00:39:05;;;;;;;;;;;;;;;15.02;69.72;101461.25;1027199;23;4061;-82
2022/09/19 00:39:56;;;;;;;;;;;;;;;15.03;70.02;101457.59;1024389;29;668;-82
2022/09/19 00:40:46;;;;;;;;;;;;;;;15.04;69.96;101459.31;1023733;29;1230;-83
2022/09/19 00:41:37;;;;;;;;;;;;;;;15.05;68.73;101461.84;1024309;29;685;-83
2022/09/19 00:42:28;;;;;;;;;;;;;;;15.03;69.27;101461.16;1023986;29;641;-84
2022/09/19 00:43:19;;;;;;;;;;;;;;;15.00;69.79;101457.81;1020953;29;668;-83
2022/09/19 00:44:09;;;;;;;;;;;;;;;15.03;69.63;101463.81;1020451;29;651;-84
2022/09/19 00:45:00;;;;;;;;;;;;;;;14.88;68.86;101460.41;1020349;29;684;-83
2022/09/19 00:45:50;;;;;;;;;;;;;;;14.90;69.57;101457.63;1020534;29;653;-83
2022/09/19 00:46:40;;;;;;;;;;;;;;;14.98;69.85;101459.75;1020540;29;1456;-84
2022/09/19 00:47:33;;;;;;;;;;;;;;;14.99;69.94;101450.75;1019822;29;696;-84
2022/09/19 00:48:24;;;;;;;;;;;;;;;14.99;69.46;101459.66;1023371;29;1627;-84
2022/09/19 00:49:15;;;;;;;;;;;;;;;14.94;69.06;101465.34;1024872;29;748;-84
2022/09/19 00:50:05;;;;;;;;;;;;;;;14.93;68.19;101462.78;1024338;29;673;-83
2022/09/19 00:50:56;;;;;;;;;;;;;;;15.00;69.62;101461.38;1023424;29;780;-84
2022/09/19 00:51:47;;;;;;;;;;;;;;;15.02;69.57;101451.38;1024417;29;661;-84
2022/09/19 00:52:37;;;;;;;;;;;;;;;15.03;69.65;101460.28;1024876;29;586;-85
2022/09/19 00:53:30;;;;;;;;;;;;;;;15.03;69.75;101458.47;1019700;29;717;-84
2022/09/19 00:54:21;;;;;;;;;;;;;;;14.98;69.79;101457.06;1020120;29;665;-83
2022/09/19 00:55:11;;;;;;;;;;;;;;;14.95;69.74;101455.47;1024326;29;570;-82
2022/09/19 00:56:01;;;;;;;;;;;;;;;15.02;69.07;101461.25;1024872;29;678;-82
2022/09/19 00:56:52;;;;;;;;;;;;;;;15.06;69.35;101462.72;1023671;29;697;-82
2022/09/19 00:57:43;;;;;;;;;;;;;;;14.99;67.61;101450.75;1023763;29;707;-84
2022/09/19 00:58:33;;;;;;;;;;;;;;;14.93;69.51;101462.78;1023723;29;634;-82
2022/09/19 00:59:23;;;;;;;;;;;;;;;14.94;69.79;101456.44;1023783;29;697;-82
2022/09/19 01:00:14;;;;;;;;;;;;;;;14.87;69.09;101453.34;1023651;29;694;-83
2022/09/19 01:01:04;;;;;;;;;;;;;;;14.99;69.70;101456.09;1023733;29;1959;-81
2022/09/19 01:01:55;;;;;;;;;;;;;;;15.00;69.68;101456.00;1023515;29;685;-84
2022/09/19 01:02:48;;;;;;;;;;;;;;;14.99;68.55;101461.47;1023736;29;634;-84
2022/09/19 01:03:39;;;;;;;;;;;;;;;15.01;69.29;101463.09;1027839;28;688;-84
2022/09/19 01:04:35;;;;;;;;;;;;;;;14.95;67.15;101468.88;1027298;28;670;-85
2022/09/19 01:05:26;;;;;;;;;;;;;;;14.92;68.78;101459.22;1023893;29;568;-85
2022/09/19 01:06:16;;;;;;;;;;;;;;;14.92;68.81;101455.69;1027908;28;665;-85
2022/09/19 01:07:06;;;;;;;;;;;;;;;14.99;69.93;101458.78;1028995;28;694;-85
2022/09/19 01:08:01;;;;;;;;;;;;;;;15.01;69.32;101463.09;1022932;29;610;-85
2022/09/19 01:08:52;;;;;;;;;;;;;;;14.91;66.96;101470.94;1024854;29;622;-85
2022/09/19 01:09:43;;;;;;;;;;;;;;;14.94;69.50;101465.34;1024248;29;692;-85
2022/09/19 01:10:34;;;;;;;;;;;;;;;15.00;69.71;101468.56;1024924;29;584;-84
2022/09/19 01:11:25;;;;;;;;;;;;;;;15.00;67.91;101469.41;1024350;29;661;-86
2022/09/19 01:12:16;;;;;;;;;;;;;;;14.97;69.53;101474.16;1024373;29;989;-86
2022/09/19 01:13:09;;;;;;;;;;;;;;;14.98;69.42;101473.19;1024455;29;626;-86
2022/09/19 01:13:59;;;;;;;;;;;;;;;14.95;68.35;101466.19;1023714;29;673;-81
2022/09/19 01:14:53;;;;;;;;;;;;;;;14.82;66.89;101477.00;1023540;29;673;-81
2022/09/19 01:15:44;;;;;;;;;;;;;;;14.86;69.66;101473.13;1027904;28;739;-81
2022/09/19 01:16:35;;;;;;;;;;;;;;;14.91;69.24;101478.97;1027388;28;751;-81
2022/09/19 01:17:26;;;;;;;;;;;;;;;14.91;69.79;101478.97;1024937;28;654;-81
2022/09/19 01:18:17;;;;;;;;;;;;;;;14.98;69.41;101483.91;1023585;29;670;-81
2022/09/19 01:19:07;;;;;;;;;;;;;;;14.99;69.38;101482.94;1023785;29;657;-80
2022/09/19 01:19:58;;;;;;;;;;;;;;;15.01;69.63;101478.31;1023849;29;666;-81
2022/09/19 01:20:48;;;;;;;;;;;;;;;14.95;67.38;101482.31;1023780;29;638;-80
2022/09/19 01:21:39;;;;;;;;;;;;;;;14.94;69.71;101478.75;1023724;29;684;-80
2022/09/19 01:22:30;;;;;;;;;;;;;;;14.94;68.43;101481.44;1023253;29;685;-79
2022/09/19 01:23:20;;;;;;;;;;;;;;;15.01;69.06;101475.66;1023694;29;731;-80
2022/09/19 01:24:14;;;;;;;;;;;;;;;14.97;69.33;101480.38;1024329;29;803;-78
2022/09/19 01:25:07;;;;;;;;;;;;;;;15.04;69.54;101476.28;1023689;29;681;-79
2022/09/19 01:25:58;;;;;;;;;;;;;;;15.02;68.90;101478.22;1023619;29;638;-79
2022/09/19 01:26:48;;;;;;;;;;;;;;;15.01;69.73;101476.50;1023501;29;658;-78
2022/09/19 01:27:40;;;;;;;;;;;;;;;15.02;69.74;101474.69;1023706;29;744;-78
2022/09/19 01:28:32;;;;;;;;;;;;;;;15.04;69.57;101475.41;1023697;29;1535;-78
2022/09/19 01:29:22;;;;;;;;;;;;;;;15.06;69.43;101476.13;1020352;29;646;-78
2022/09/19 01:30:13;;;;;;;;;;;;;;;15.04;69.42;101470.91;1020313;29;611;-79
2022/09/19 01:31:19;;;;;;;;;;;;;;;15.10;68.72;101477.63;1020309;29;685;-79
2022/09/19 01:32:10;;;;;;;;;;;;;;;15.13;69.68;101474.72;1019860;29;876;-79
2022/09/19 01:33:01;;;;;;;;;;;;;;;15.11;69.44;101479.34;1019487;29;635;-80
2022/09/19 01:33:52;;;;;;;;;;;;;;;15.05;68.16;101479.81;1020255;29;669;-79
2022/09/19 01:34:43;;;;;;;;;;;;;;;15.05;69.58;101474.44;1019901;29;638;-79
2022/09/19 01:35:34;;;;;;;;;;;;;;;15.02;69.21;101477.34;1019870;29;614;-80
2022/09/19 01:36:26;;;;;;;;;;;;;;;15.12;69.40;101479.25;1019683;29;647;-79
2022/09/19 01:37:17;;;;;;;;;;;;;;;15.10;69.51;101481.19;1020256;29;674;-79
2022/09/19 01:38:08;;;;;;;;;;;;;;;15.11;69.06;101482.91;1020260;29;662;-80
2022/09/19 01:38:58;;;;;;;;;;;;;;;15.12;69.69;101483.75;1019952;29;1287;-79
2022/09/19 01:39:49;;;;;;;;;;;;;;;15.10;69.50;101480.31;1020580;29;646;-79
2022/09/19 01:40:39;;;;;;;;;;;;;;;15.08;69.19;101479.56;1020385;29;607;-79
2022/09/19 01:41:30;;;;;;;;;;;;;;;15.11;69.34;101476.66;1020465;29;665;-79
2022/09/19 01:42:21;;;;;;;;;;;;;;;15.10;69.72;101478.50;1021023;29;781;-80
2022/09/19 01:43:11;;;;;;;;;;;;;;;15.04;69.26;101480.78;1024565;29;702;-81
2022/09/19 01:44:03;;;;;;;;;;;;;;;15.01;69.62;101489.06;1025769;28;629;-80
2022/09/19 01:44:54;;;;;;;;;;;;;;;15.04;69.48;101491.53;1021326;29;630;-80
2022/09/19 01:45:44;;;;;;;;;;;;;;;15.08;69.49;101479.56;1020388;29;642;-80
2022/09/19 01:46:35;;;;;;;;;;;;;;;15.04;69.41;101481.66;1020588;29;643;-79
2022/09/19 01:47:26;;;;;;;;;;;;;;;15.08;69.31;101482.25;1024515;29;670;-80
2022/09/19 01:48:16;;;;;;;;;;;;;;;15.13;69.61;101486.31;1024885;29;654;-80
2022/09/19 01:49:06;;;;;;;;;;;;;;;15.11;69.41;101484.72;1024466;29;642;-81
2022/09/19 01:49:57;;;;;;;;;;;;;;;15.11;69.34;101482.03;1024395;29;660;-81
2022/09/19 01:50:48;;;;;;;;;;;;;;;15.14;69.25;101485.34;1024541;29;713;-80
2022/09/19 01:51:38;;;;;;;;;;;;;;;15.12;69.47;101487.28;1024260;29;693;-80
2022/09/19 01:52:29;;;;;;;;;;;;;;;15.12;69.04;101489.97;1024341;29;1645;-80
2022/09/19 01:53:19;;;;;;;;;;;;;;;15.14;69.31;101490.72;1020287;29;706;-80
2022/09/19 01:54:09;;;;;;;;;;;;;;;15.16;69.13;101490.63;1021153;29;680;-79
2022/09/19 01:55:01;;;;;;;;;;;;;;;15.15;69.33;101487.06;1024856;29;751;-79
2022/09/19 01:55:51;;;;;;;;;;;;;;;15.13;69.46;101478.28;1024873;29;631;-80
2022/09/19 01:56:41;;;;;;;;;;;;;;;15.15;69.53;101487.06;1025435;29;618;-81
2022/09/19 01:57:32;;;;;;;;;;;;;;;15.16;69.50;101490.63;1025418;29;686;-81
2022/09/19 01:58:22;;;;;;;;;;;;;;;15.15;69.36;101487.06;1025628;29;672;-83
2022/09/19 01:59:13;;;;;;;;;;;;;;;15.11;69.56;101493.63;1025424;29;730;-81
2022/09/19 02:00:03;;;;;;;;;;;;;;;15.17;69.37;101486.97;1025460;29;636;-82
2022/09/19 02:00:54;;;;;;;;;;;;;;;15.17;69.25;101490.50;1025375;29;1902;-80
2022/09/19 02:01:44;;;;;;;;;;;;;;;15.15;69.14;101488.91;1023744;29;630;-81
2022/09/19 02:02:34;;;;;;;;;;;;;;;15.12;69.54;101486.44;1025532;29;724;-81
2022/09/19 02:03:25;;;;;;;;;;;;;;;15.12;69.77;101489.97;1025451;29;697;-82
2022/09/19 02:04:16;;;;;;;;;;;;;;;15.14;69.68;101493.41;1024887;29;730;-82
2022/09/19 02:05:06;;;;;;;;;;;;;;;15.14;69.81;101490.72;1025392;29;666;-79
2022/09/19 02:05:59;;;;;;;;;;;;;;;15.20;69.41;101492.97;1023385;29;717;-82
2022/09/19 02:06:49;;;;;;;;;;;;;;;15.19;69.64;101493.94;1024856;29;701;-82
2022/09/19 02:07:42;;;;;;;;;;;;;;;15.20;69.65;101498.34;1025257;29;712;-80
2022/09/19 02:08:32;;;;;;;;;;;;;;;15.13;69.50;101496.19;1021563;29;726;-82
2022/09/19 02:09:23;;;;;;;;;;;;;;;15.09;69.96;101492.03;1020506;29;627;-82
2022/09/19 02:10:13;;;;;;;;;;;;;;;15.10;69.81;101493.75;1024719;29;634;-82
2022/09/19 02:11:04;;;;;;;;;;;;;;;15.06;68.62;101500.28;1024891;29;576;-82
2022/09/19 02:11:55;;;;;;;;;;;;;;;15.12;70.01;101489.13;1024904;29;689;-82
2022/09/19 02:12:45;;;;;;;;;;;;;;;15.07;69.52;101496.66;1024794;29;701;-82
2022/09/19 02:13:36;;;;;;;;;;;;;;;15.04;70.01;101496.91;1025027;29;654;-83
2022/09/19 02:14:27;;;;;;;;;;;;;;;14.98;70.29;101500.88;1024511;29;1704;-81
2022/09/19 02:15:18;;;;;;;;;;;;;;;15.00;70.27;101501.63;1024854;29;614;-81
2022/09/19 02:16:08;;;;;;;;;;;;;;;15.05;70.02;101503.97;1025356;29;613;-82
2022/09/19 02:17:02;;;;;;;;;;;;;;;15.07;69.62;101502.00;1025552;29;882;-81
2022/09/19 02:17:53;;;;;;;;;;;;;;;15.11;69.80;101492.78;1024883;29;728;-82
2022/09/19 02:18:43;;;;;;;;;;;;;;;15.13;69.55;101496.19;1025308;29;662;-81
2022/09/19 02:19:33;;;;;;;;;;;;;;;15.14;69.40;101495.25;1025417;29;776;-81
2022/09/19 02:20:24;;;;;;;;;;;;;;;15.17;69.73;101495.00;1024932;29;693;-83
2022/09/19 02:21:16;;;;;;;;;;;;;;;15.15;69.57;101494.28;1025380;29;1948;-83
2022/09/19 02:22:08;;;;;;;;;;;;;;;15.15;69.79;101494.28;1024969;29;622;-83
2022/09/19 02:22:58;;;;;;;;;;;;;;;15.15;69.37;101494.28;1024734;29;747;-83
2022/09/19 02:23:49;;;;;;;;;;;;;;;15.09;69.75;101494.72;1020639;29;666;-82
2022/09/19 02:24:39;;;;;;;;;;;;;;;15.06;69.40;101500.28;1020460;29;899;-81
2022/09/19 02:25:32;;;;;;;;;;;;;;;15.01;69.98;101497.97;1024834;29;759;-81
2022/09/19 02:26:22;;;;;;;;;;;;;;;15.09;69.67;101497.41;1024841;29;675;-81
2022/09/19 02:27:12;;;;;;;;;;;;;;;15.14;69.53;101500.59;1025302;29;679;-81
2022/09/19 02:28:03;;;;;;;;;;;;;;;15.12;69.71;101505.22;1025271;29;659;-81
2022/09/19 02:28:54;;;;;;;;;;;;;;;15.05;69.59;101501.28;1025419;29;662;-82
2022/09/19 02:29:45;;;;;;;;;;;;;;;15.09;69.56;101510.81;1024822;29;673;-83
2022/09/19 02:30:36;;;;;;;;;;;;;;;15.08;69.49;101498.38;1024782;29;639;-81
2022/09/19 02:31:27;;;;;;;;;;;;;;;15.08;69.51;101512.63;1025408;29;755;-83
2022/09/19 02:32:19;;;;;;;;;;;;;;;15.03;68.38;101504.09;1024759;29;645;-83
2022/09/19 02:33:09;;;;;;;;;;;;;;;14.92;69.68;101514.72;1024638;29;661;-84
2022/09/19 02:34:00;;;;;;;;;;;;;;;14.96;69.38;101504.63;1025279;29;673;-83
2022/09/19 02:34:51;;;;;;;;;;;;;;;15.04;69.48;101505.81;1024346;29;673;-83
2022/09/19 02:35:41;;;;;;;;;;;;;;;15.07;69.76;101510.06;1025301;29;652;-83
2022/09/19 02:36:32;;;;;;;;;;;;;;;15.08;69.73;101504.59;1025123;29;1650;-82
2022/09/19 02:37:23;;;;;;;;;;;;;;;15.11;69.59;101507.06;1025801;28;759;-82
2022/09/19 02:38:14;;;;;;;;;;;;;;;15.16;69.68;101510.25;1025838;28;693;-83
2022/09/19 02:39:05;;;;;;;;;;;;;;;15.16;69.23;101520.16;1025711;28;1128;-83
2022/09/19 02:39:56;;;;;;;;;;;;;;;15.14;69.39;101514.03;1025337;28;652;-85
2022/09/19 02:40:47;;;;;;;;;;;;;;;15.12;68.81;101514.13;1025845;28;657;-84
2022/09/19 02:41:37;;;;;;;;;;;;;;;15.12;69.55;101514.13;1025806;28;629;-84
2022/09/19 02:42:29;;;;;;;;;;;;;;;15.12;69.55;101511.47;1024755;29;616;-84
2022/09/19 02:43:20;;;;;;;;;;;;;;;15.17;69.58;101514.66;1025356;29;693;-84
2022/09/19 02:44:14;;;;;;;;;;;;;;;15.19;69.15;101509.19;1025360;29;655;-84
2022/09/19 02:45:07;;;;;;;;;;;;;;;15.19;69.55;101514.56;1025973;28;606;-89
2022/09/19 02:45:58;;;;;;;;;;;;;;;15.22;69.40;101508.97;1025863;28;697;-86
2022/09/19 02:46:49;;;;;;;;;;;;;;;15.21;69.37;101502.75;1024125;28;1341;-85
2022/09/19 02:47:39;;;;;;;;;;;;;;;15.12;69.78;101505.22;1021022;29;599;-86
2022/09/19 02:48:30;;;;;;;;;;;;;;;15.14;69.68;101505.97;1020901;29;682;-81
2022/09/19 02:49:20;;;;;;;;;;;;;;;15.14;69.66;101511.34;1019866;29;625;-82
2022/09/19 02:50:11;;;;;;;;;;;;;;;15.15;69.52;101497.81;1020361;29;697;-82
2022/09/19 02:51:01;;;;;;;;;;;;;;;15.16;69.32;101512.09;1019640;29;602;-82
2022/09/19 02:51:51;;;;;;;;;;;;;;;15.18;69.86;101512.84;1020789;29;701;-81
2022/09/19 02:52:42;;;;;;;;;;;;;;;15.22;69.25;101508.97;1020170;29;635;-81
2022/09/19 02:53:33;;;;;;;;;;;;;;;15.21;69.47;101509.94;1020698;29;753;-81
2022/09/19 02:54:26;;;;;;;;;;;;;;;15.18;69.40;101504.78;1020840;29;693;-81
2022/09/19 02:55:16;;;;;;;;;;;;;;;15.19;69.83;101507.38;1021314;29;821;-82
2022/09/19 02:56:06;;;;;;;;;;;;;;;15.19;69.63;101506.50;1020803;29;678;-82
2022/09/19 02:56:57;;;;;;;;;;;;;;;15.17;69.66;101505.75;1021361;29;912;-81
2022/09/19 02:57:47;;;;;;;;;;;;;;;15.18;69.56;101508.34;1020823;29;666;-81
2022/09/19 02:58:38;;;;;;;;;;;;;;;15.14;69.63;101500.59;1022490;29;1658;-81
2022/09/19 02:59:28;;;;;;;;;;;;;;;15.13;68.60;101505.13;1025306;28;692;-82
2022/09/19 03:00:21;;;;;;;;;;;;;;;15.09;69.68;101509.00;1024566;29;1575;-82
2022/09/19 03:01:11;;;;;;;;;;;;;;;15.15;69.82;101508.56;1025704;28;1958;-82
2022/09/19 03:02:01;;;;;;;;;;;;;;;15.18;69.29;101512.84;1024747;29;663;-82
2022/09/19 03:02:56;;;;;;;;;;;;;;;15.02;69.31;101509.56;1024803;29;682;-82
2022/09/19 03:04:56;;;;;;;;;;;;;;;14.96;70.51;101521.59;1025315;29;666;-82
2022/09/19 03:05:46;;;;;;;;;;;;;;;14.93;69.07;101511.94;1024613;29;615;-81
2022/09/19 03:06:37;;;;;;;;;;;;;;;14.93;70.09;101503.88;1024617;29;689;-82
2022/09/19 03:07:27;;;;;;;;;;;;;;;14.83;68.43;101508.22;1025829;28;653;-80
2022/09/19 03:08:18;;;;;;;;;;;;;;;14.70;68.66;101510.03;1024773;29;665;-81
2022/09/19 03:09:08;;;;;;;;;;;;;;;14.79;70.18;101511.22;1024631;29;666;-81
2022/09/19 03:09:59;;;;;;;;;;;;;;;14.84;69.32;101509.94;1024673;29;678;-81
2022/09/19 03:10:49;;;;;;;;;;;;;;;14.86;68.43;101516.06;1024709;29;595;-84
2022/09/19 03:11:39;;;;;;;;;;;;;;;14.89;68.80;101515.81;1024707;29;663;-85
2022/09/19 03:12:31;;;;;;;;;;;;;;;14.90;68.76;101517.53;1024594;29;670;-87
2022/09/19 03:13:24;;;;;;;;;;;;;;;14.89;68.59;101512.25;1025864;28;618;-82
2022/09/19 03:14:16;;;;;;;;;;;;;;;14.90;69.48;101514.84;1025280;29;689;-82
2022/09/19 03:15:07;;;;;;;;;;;;;;;14.94;69.64;101508.28;1025749;28;767;-82
2022/09/19 03:15:57;;;;;;;;;;;;;;;14.96;69.37;101501.94;1025709;28;637;-82
2022/09/19 03:16:48;;;;;;;;;;;;;;;15.01;69.69;101510.53;1024768;29;793;-82
2022/09/19 03:17:38;;;;;;;;;;;;;;;15.00;70.03;101507.00;1024609;29;661;-81
2022/09/19 03:18:29;;;;;;;;;;;;;;;14.97;69.19;101503.66;1023910;29;1645;-81
2022/09/19 03:19:19;;;;;;;;;;;;;;;14.97;69.43;101509.03;1025018;29;573;-81
2022/09/19 03:20:11;;;;;;;;;;;;;;;14.91;69.19;101513.88;1023594;29;630;-81
2022/09/19 03:21:02;;;;;;;;;;;;;;;14.98;69.53;101508.94;1024546;29;1954;-81
2022/09/19 03:21:52;;;;;;;;;;;;;;;14.99;69.76;101512.47;1024516;29;631;-80
2022/09/19 03:22:45;;;;;;;;;;;;;;;15.00;69.84;101519.56;1025248;29;720;-80
2022/09/19 03:23:35;;;;;;;;;;;;;;;15.07;69.83;101507.38;1025072;29;628;-80
2022/09/19 03:24:26;;;;;;;;;;;;;;;15.08;69.48;101512.63;1025168;29;639;-81
2022/09/19 03:25:16;;;;;;;;;;;;;;;15.11;69.26;101514.25;1024504;29;635;-82
2022/09/19 03:26:08;;;;;;;;;;;;;;;15.03;69.75;101508.59;1024693;29;684;-83
2022/09/19 03:26:58;;;;;;;;;;;;;;;15.06;69.75;101521.78;1024612;29;614;-83
2022/09/19 03:27:51;;;;;;;;;;;;;;;15.12;69.43;101514.13;1023758;29;673;-82
2022/09/19 03:28:41;;;;;;;;;;;;;;;15.07;69.12;101507.38;1024522;29;704;-82
2022/09/19 03:29:33;;;;;;;;;;;;;;;15.09;69.46;101517.03;1023568;29;698;-82
2022/09/19 03:30:24;;;;;;;;;;;;;;;15.11;69.55;101519.63;1024577;29;657;-79
2022/09/19 03:31:14;;;;;;;;;;;;;;;15.09;69.65;101517.03;1024077;29;775;-80
2022/09/19 03:32:04;;;;;;;;;;;;;;;15.06;69.42;101517.25;1024721;29;685;-80
2022/09/19 03:32:55;;;;;;;;;;;;;;;15.07;69.56;101512.75;1024668;29;698;-80
2022/09/19 03:33:46;;;;;;;;;;;;;;;15.08;69.51;101520.69;1025106;29;646;-80
2022/09/19 03:34:37;;;;;;;;;;;;;;;15.14;69.68;101519.41;1024668;29;639;-80
2022/09/19 03:35:27;;;;;;;;;;;;;;;15.17;69.73;101521.88;1025071;29;649;-80
2022/09/19 03:36:18;;;;;;;;;;;;;;;15.13;69.56;101518.53;1024615;29;729;-80
2022/09/19 03:37:08;;;;;;;;;;;;;;;15.14;69.52;101516.72;1024546;29;638;-81
2022/09/19 03:38:01;;;;;;;;;;;;;;;15.16;69.54;101518.31;1025003;29;705;-80
2022/09/19 03:38:51;;;;;;;;;;;;;;;15.17;69.60;101517.34;1024304;29;1044;-80
2022/09/19 03:39:41;;;;;;;;;;;;;;;15.17;69.72;101529.91;1023488;29;809;-80
2022/09/19 03:40:32;;;;;;;;;;;;;;;15.17;69.47;101525.41;1023447;29;1707;-81
2022/09/19 03:41:23;;;;;;;;;;;;;;;15.19;69.44;101530.66;1024004;29;1972;-80
2022/09/19 03:42:14;;;;;;;;;;;;;;;15.19;69.35;101527.97;1025590;28;692;-81
2022/09/19 03:43:06;;;;;;;;;;;;;;;15.16;69.53;101523.69;1023903;29;630;-80
2022/09/19 03:43:59;;;;;;;;;;;;;;;15.19;69.55;101525.28;1025695;28;630;-79
2022/09/19 03:44:50;;;;;;;;;;;;;;;15.21;69.09;101523.34;1024232;29;733;-79
2022/09/19 03:45:40;;;;;;;;;;;;;;;15.21;69.62;101523.34;1024491;29;770;-79
2022/09/19 03:46:31;;;;;;;;;;;;;;;15.19;69.48;101527.97;1025558;28;695;-79
2022/09/19 03:47:21;;;;;;;;;;;;;;;15.17;69.75;101527.22;1020644;29;674;-79
2022/09/19 03:48:12;;;;;;;;;;;;;;;15.19;69.40;101533.34;1019930;29;698;-79
2022/09/19 03:49:02;;;;;;;;;;;;;;;15.17;69.43;101532.59;1020576;29;713;-80
2022/09/19 03:49:53;;;;;;;;;;;;;;;15.17;69.23;101524.56;1020575;29;667;-80
2022/09/19 03:50:43;;;;;;;;;;;;;;;15.16;69.48;101528.19;1020558;29;658;-79
2022/09/19 03:51:34;;;;;;;;;;;;;;;15.17;68.97;101535.28;1020615;29;686;-79
2022/09/19 03:52:26;;;;;;;;;;;;;;;15.18;69.23;101528.94;1019896;29;647;-79
2022/09/19 03:53:17;;;;;;;;;;;;;;;15.17;69.50;101530.78;1020537;29;705;-79
2022/09/19 03:54:09;;;;;;;;;;;;;;;15.16;68.95;101529.06;1020536;29;698;-79
2022/09/19 03:55:00;;;;;;;;;;;;;;;15.13;69.43;101533.78;1020655;29;656;-79
2022/09/19 03:55:50;;;;;;;;;;;;;;;15.15;69.45;101532.72;1020566;29;638;-80
2022/09/19 03:56:41;;;;;;;;;;;;;;;15.22;69.34;101533.13;1020043;29;576;-80
2022/09/19 03:57:31;;;;;;;;;;;;;;;15.20;69.38;101529.69;1020561;29;683;-83
2022/09/19 03:58:23;;;;;;;;;;;;;;;15.16;69.35;101523.69;1020536;29;654;-84
2022/09/19 03:59:13;;;;;;;;;;;;;;;15.17;69.79;101535.28;1020515;29;689;-83
2022/09/19 04:00:04;;;;;;;;;;;;;;;15.18;69.37;101529.81;1020682;29;683;-83
2022/09/19 04:00:54;;;;;;;;;;;;;;;15.11;68.35;101535.72;1020492;29;611;-83
2022/09/19 04:01:45;;;;;;;;;;;;;;;15.07;69.00;101531.53;1020141;29;725;-82
2022/09/19 04:02:35;;;;;;;;;;;;;;;15.09;69.36;101532.28;1021667;29;1661;-82
2022/09/19 04:03:26;;;;;;;;;;;;;;;15.11;69.42;101535.72;1023339;29;646;-82
2022/09/19 04:04:16;;;;;;;;;;;;;;;15.15;69.39;101531.84;1025027;29;693;-82
2022/09/19 04:05:06;;;;;;;;;;;;;;;15.11;69.55;101539.28;1024942;29;615;-82
2022/09/19 04:05:57;;;;;;;;;;;;;;;15.14;69.31;101535.50;1025020;29;677;-80
2022/09/19 04:06:47;;;;;;;;;;;;;;;15.08;68.31;101544.00;1025025;29;630;-81
2022/09/19 04:07:38;;;;;;;;;;;;;;;15.02;68.91;101539.09;1023506;29;665;-81
2022/09/19 04:08:29;;;;;;;;;;;;;;;15.03;69.71;101544.34;1024468;29;654;-81
2022/09/19 04:09:19;;;;;;;;;;;;;;;15.10;69.44;101534.00;1024928;29;706;-81
2022/09/19 04:10:10;;;;;;;;;;;;;;;15.12;69.41;101535.63;1025111;29;661;-80
2022/09/19 04:11:00;;;;;;;;;;;;;;;15.12;69.55;101540.13;1020128;29;647;-80
2022/09/19 04:11:51;;;;;;;;;;;;;;;15.06;69.08;101546.78;1021347;29;634;-79
2022/09/19 04:12:41;;;;;;;;;;;;;;;15.07;69.59;101543.13;1024926;29;639;-80
2022/09/19 04:13:33;;;;;;;;;;;;;;;15.09;69.78;101546.56;1023587;29;791;-80
2022/09/19 04:14:23;;;;;;;;;;;;;;;15.08;69.45;101546.69;1024392;29;634;-81
2022/09/19 04:15:14;;;;;;;;;;;;;;;15.03;69.75;101543.50;1023525;29;642;-81
2022/09/19 04:16:06;;;;;;;;;;;;;;;15.04;69.50;101551.44;1023897;29;891;-82
2022/09/19 04:16:56;;;;;;;;;;;;;;;15.05;69.78;101547.75;1024394;29;727;-81
2022/09/19 04:17:47;;;;;;;;;;;;;;;15.04;69.66;101545.22;1024999;29;701;-81
2022/09/19 04:18:41;;;;;;;;;;;;;;;15.07;69.53;101545.81;1025076;29;651;-81
2022/09/19 04:19:31;;;;;;;;;;;;;;;15.03;69.56;101549.72;1024419;29;638;-81
2022/09/19 04:20:23;;;;;;;;;;;;;;;15.06;69.79;101554.84;1024989;29;655;-82
2022/09/19 04:21:15;;;;;;;;;;;;;;;14.99;68.47;101555.41;1024309;29;1898;-82
2022/09/19 04:22:05;;;;;;;;;;;;;;;15.01;69.46;101550.81;1024370;29;738;-81
2022/09/19 04:23:00;;;;;;;;;;;;;;;15.03;69.41;101555.09;1023431;29;661;-83
2022/09/19 04:23:50;;;;;;;;;;;;;;;14.96;69.70;101555.63;1024287;29;669;-81
2022/09/19 04:24:42;;;;;;;;;;;;;;;14.93;69.37;101545.97;1019951;29;1611;-81
2022/09/19 04:25:34;;;;;;;;;;;;;;;14.98;70.04;101556.38;1020689;29;708;-82
2022/09/19 04:26:25;;;;;;;;;;;;;;;14.93;69.22;101549.50;1024953;28;1618;-81
2022/09/19 04:27:15;;;;;;;;;;;;;;;14.99;69.61;101552.72;1024393;29;604;-80
2022/09/19 04:28:06;;;;;;;;;;;;;;;14.99;69.21;101552.72;1024974;29;681;-83
2022/09/19 04:28:56;;;;;;;;;;;;;;;14.96;69.49;101552.94;1024978;29;670;-84
2022/09/19 04:29:47;;;;;;;;;;;;;;;15.01;69.87;101550.81;1020245;29;736;-84
2022/09/19 04:30:37;;;;;;;;;;;;;;;15.02;69.54;101547.16;1019668;29;615;-85
2022/09/19 04:31:28;;;;;;;;;;;;;;;15.03;69.56;101551.56;1024342;29;732;-84
2022/09/19 04:32:18;;;;;;;;;;;;;;;15.05;69.35;101547.75;1024325;29;732;-84